Time;durP1;ratioP1;P1;durP2;ratioP2;P2;SDS_P1;SDS_P2;PMS_P1;PMS_P2;Temp;Humidity;BMP_temperature;BMP_pressure;BME280_temperature;BME280_humidity;BME280_pressure;Samples;Min_cycle;Max_cycle;Signal;HPM_P1;HPM_P2
2024/02/18 05:01:12;;;;;;;2.60;2.40;;;1.10;97.30;;;;;;6148269;22;20394;31
2024/02/18 05:03:40;;;;;;;1.67;1.57;;;1.10;97.30;;;;;;4985706;28;20536;-87
2024/02/18 05:06:09;;;;;;;3.20;3.00;;;1.20;97.30;;;;;;4990110;28;20459;-90
2024/02/18 05:08:41;;;;;;;5.80;1.67;;;1.20;97.30;;;;;;5022169;27;20641;-60
2024/02/18 05:11:06;;;;;;;2.13;1.97;;;1.30;97.30;;;;;;5030623;28;20973;-60
2024/02/18 05:13:32;;;;;;;3.63;3.43;;;1.30;97.30;;;;;;5049035;28;20601;-60
2024/02/18 05:15:57;;;;;;;2.63;2.43;;;1.30;97.30;;;;;;5002253;28;20652;-60
2024/02/18 05:18:23;;;;;;;6.03;3.80;;;1.30;97.30;;;;;;5000663;28;20656;-60
2024/02/18 05:20:49;;;;;;;1.67;1.57;;;1.30;97.30;;;;;;5002874;28;20197;-60
2024/02/18 05:23:14;;;;;;;1.97;1.87;;;1.30;97.30;;;;;;5001230;28;20173;-61
2024/02/18 05:25:40;;;;;;;1.60;1.50;;;1.40;97.30;;;;;;5002425;28;20234;-60
2024/02/18 05:28:07;;;;;;;2.67;2.47;;;1.40;97.30;;;;;;5001334;28;20205;-60
2024/02/18 05:30:32;;;;;;;2.60;2.40;;;1.50;97.30;;;;;;5002341;28;20208;-61
2024/02/18 05:32:58;;;;;;;2.63;2.43;;;1.50;97.30;;;;;;5002438;28;20425;-60
2024/02/18 05:35:24;;;;;;;3.10;2.90;;;1.50;97.30;;;;;;5004160;28;20173;-60
2024/02/18 05:37:50;;;;;;;2.37;1.97;;;1.50;97.30;;;;;;5035519;28;20973;-60
2024/02/18 05:40:15;;;;;;;5.70;2.80;;;1.50;97.30;;;;;;5002420;28;20528;-60
2024/02/18 05:42:41;;;;;;;1.80;1.70;;;1.60;97.30;;;;;;5002224;28;20423;-60
2024/02/18 05:45:06;;;;;;;3.37;2.23;;;1.60;97.30;;;;;;5001062;28;20177;-61
2024/02/18 05:47:32;;;;;;;2.70;2.50;;;1.60;97.30;;;;;;5000340;28;20209;-60
2024/02/18 05:49:58;;;;;;;3.97;3.77;;;1.60;97.30;;;;;;5002145;28;20550;-60
2024/02/18 05:52:23;;;;;;;1.90;1.80;;;1.70;97.30;;;;;;5000207;28;20203;-61
2024/02/18 05:54:49;;;;;;;3.07;2.80;;;1.70;97.30;;;;;;5000641;28;20180;-60
2024/02/18 05:57:14;;;;;;;1.97;1.87;;;1.70;97.30;;;;;;5000782;28;20186;-60
2024/02/18 05:59:40;;;;;;;1.70;1.60;;;1.70;97.30;;;;;;5043963;28;21084;-60
2024/02/18 06:02:06;;;;;;;3.23;3.03;;;1.70;97.30;;;;;;5002018;28;20280;-60
2024/02/18 06:04:31;;;;;;;3.43;2.17;;;1.70;97.30;;;;;;5002084;28;20184;-60
2024/02/18 06:06:58;;;;;;;2.90;2.23;;;1.80;97.30;;;;;;5001749;28;20678;-60
2024/02/18 06:09:23;;;;;;;2.13;1.93;;;1.90;97.30;;;;;;5001504;28;20452;-60
2024/02/18 06:11:51;;;;;;;1.47;1.37;;;1.90;97.30;;;;;;5002403;28;20460;-61
2024/02/18 06:14:17;;;;;;;1.53;1.43;;;2.00;97.30;;;;;;5001798;28;20417;-60
2024/02/18 06:16:42;;;;;;;1.97;1.87;;;2.00;97.30;;;;;;5016127;28;20449;-60
2024/02/18 06:19:08;;;;;;;4.90;1.77;;;2.00;97.30;;;;;;5021980;28;20529;-60
2024/02/18 06:21:34;;;;;;;1.70;1.60;;;2.00;97.30;;;;;;4987428;28;20637;-60
2024/02/18 06:23:59;;;;;;;1.57;1.47;;;2.00;97.30;;;;;;5013993;28;20167;-60
2024/02/18 06:26:25;;;;;;;1.77;1.67;;;2.10;97.30;;;;;;5046844;28;20189;-60
2024/02/18 06:28:51;;;;;;;2.43;2.23;;;2.10;97.30;;;;;;4988176;28;20182;-60
2024/02/18 06:31:17;;;;;;;1.50;1.40;;;2.20;97.30;;;;;;4987785;28;20681;-60
2024/02/18 06:33:46;;;;;;;1.20;1.10;;;2.20;97.30;;;;;;5031148;28;20174;-60
2024/02/18 06:36:12;;;;;;;2.33;2.17;;;2.20;97.30;;;;;;5022601;28;20413;-60
2024/02/18 06:38:41;;;;;;;1.60;1.50;;;2.20;97.30;;;;;;4995487;28;20444;-60
2024/02/18 06:41:06;;;;;;;1.63;1.53;;;2.30;97.30;;;;;;4988358;28;20948;-60
2024/02/18 06:43:32;;;;;;;4.27;1.93;;;2.30;97.30;;;;;;4988781;28;20483;-60
2024/02/18 06:45:57;;;;;;;2.80;2.60;;;2.40;97.30;;;;;;4986903;28;20287;-60
2024/02/18 06:48:23;;;;;;;2.60;2.40;;;2.50;97.30;;;;;;5072264;28;20704;-60
2024/02/18 06:50:49;;;;;;;3.97;2.33;;;2.60;97.30;;;;;;5041307;28;20197;-60
2024/02/18 06:53:15;;;;;;;2.13;1.97;;;2.60;97.30;;;;;;5036574;28;20178;-60
2024/02/18 06:55:40;;;;;;;5.67;1.67;;;2.70;97.30;;;;;;5056211;28;20408;-60
2024/02/18 06:58:08;;;;;;;1.83;1.73;;;2.80;97.30;;;;;;5056303;28;20420;-60
2024/02/18 07:00:34;;;;;;;2.33;2.17;;;2.90;97.30;;;;;;5056004;28;20254;-60
2024/02/18 07:02:59;;;;;;;14.53;3.97;;;3.00;97.30;;;;;;5054606;28;20428;-60
2024/02/18 07:05:25;;;;;;;1.57;1.53;;;3.10;97.30;;;;;;5056429;28;20205;-60
2024/02/18 07:07:50;;;;;;;1.53;1.43;;;3.10;97.30;;;;;;5076003;28;20225;-60
2024/02/18 07:10:16;;;;;;;2.87;2.67;;;3.20;97.30;;;;;;5007483;28;20216;-60
2024/02/18 07:12:41;;;;;;;3.57;3.37;;;3.30;97.30;;;;;;5050420;28;20179;-60
2024/02/18 07:15:07;;;;;;;8.50;3.07;;;3.30;97.30;;;;;;5089955;28;20206;-60
2024/02/18 07:17:33;;;;;;;3.43;1.97;;;3.40;97.30;;;;;;5014326;28;20188;-60
2024/02/18 07:19:58;;;;;;;1.90;1.80;;;3.50;97.30;;;;;;5090124;28;20213;-60
2024/02/18 07:22:25;;;;;;;1.87;1.77;;;3.60;97.30;;;;;;5090195;28;20665;-60
2024/02/18 07:24:51;;;;;;;5.03;3.70;;;3.70;97.30;;;;;;5007655;28;20188;-60
2024/02/18 07:27:16;;;;;;;1.30;1.20;;;3.80;97.30;;;;;;5068223;28;20444;-60
2024/02/18 07:29:42;;;;;;;2.77;2.57;;;3.90;97.30;;;;;;5081142;28;20194;-60
2024/02/18 07:32:07;;;;;;;1.40;1.30;;;4.00;97.30;;;;;;5061901;28;20567;-60
2024/02/18 07:34:33;;;;;;;3.30;3.10;;;4.00;97.30;;;;;;5055631;28;20212;-60
2024/02/18 07:36:58;;;;;;;5.50;2.37;;;4.20;97.30;;;;;;5070606;28;20177;-60
2024/02/18 07:39:24;;;;;;;3.37;3.17;;;4.20;97.30;;;;;;5068356;28;20227;-60
2024/02/18 07:41:51;;;;;;;8.47;4.10;;;4.40;97.30;;;;;;5055193;28;20272;-60
2024/02/18 07:44:16;;;;;;;2.70;2.07;;;4.50;97.30;;;;;;5027999;28;20424;-60
2024/02/18 07:46:42;;;;;;;1.23;1.10;;;4.60;97.30;;;;;;5040887;28;20448;-60
2024/02/18 07:49:07;;;;;;;7.03;2.47;;;4.70;97.30;;;;;;5006915;28;20547;-60
2024/02/18 07:51:33;;;;;;;2.40;2.20;;;4.90;97.30;;;;;;5009187;28;20209;-60
2024/02/18 07:53:59;;;;;;;1.03;1.03;;;5.00;97.30;;;;;;5072594;28;20230;-60
2024/02/18 07:56:24;;;;;;;8.43;2.43;;;5.10;97.30;;;;;;5038520;28;20187;-60
2024/02/18 07:58:50;;;;;;;6.73;4.13;;;5.20;97.30;;;;;;5054926;28;20182;-60
2024/02/18 08:01:15;;;;;;;4.23;3.60;;;5.30;97.30;;;;;;5028834;28;20204;-60
2024/02/18 08:03:41;;;;;;;3.80;2.43;;;5.50;97.30;;;;;;5047422;28;20177;-60
2024/02/18 08:06:09;;;;;;;3.50;3.30;;;5.60;97.30;;;;;;5068270;28;20644;-60
2024/02/18 08:08:35;;;;;;;6.87;3.83;;;5.70;97.30;;;;;;5074664;28;20222;-60
2024/02/18 08:11:01;;;;;;;8.40;3.23;;;5.80;97.30;;;;;;5035143;28;20536;-60
2024/02/18 08:13:27;;;;;;;3.60;3.40;;;5.90;97.30;;;;;;4987111;28;20178;-60
2024/02/18 08:15:52;;;;;;;3.67;2.47;;;6.00;97.30;;;;;;4985355;28;20417;-60
2024/02/18 08:18:18;;;;;;;4.80;3.00;;;6.10;97.30;;;;;;4987090;28;20619;-60
2024/02/18 08:20:45;;;;;;;2.80;1.90;;;6.20;97.30;;;;;;4986581;28;20231;-60
2024/02/18 08:23:11;;;;;;;2.23;1.40;;;6.20;97.30;;;;;;5029271;28;20182;-60
2024/02/18 08:25:36;;;;;;;7.37;3.77;;;6.20;97.30;;;;;;5028753;28;20420;-60
2024/02/18 08:28:02;;;;;;;2.50;1.80;;;6.30;97.30;;;;;;4986855;28;20464;-60
2024/02/18 08:30:27;;;;;;;1.73;1.63;;;6.40;97.30;;;;;;4985452;28;20223;-60
2024/02/18 08:32:53;;;;;;;4.23;3.10;;;6.50;97.30;;;;;;4986784;28;20930;-60
2024/02/18 08:35:20;;;;;;;5.23;3.00;;;6.50;97.30;;;;;;4986914;28;20174;-60
2024/02/18 08:37:49;;;;;;;3.90;3.10;;;6.50;97.30;;;;;;4979849;28;20269;-60
2024/02/18 08:40:15;;;;;;;1.83;1.73;;;6.60;97.30;;;;;;4993428;28;20434;-60
2024/02/18 08:42:41;;;;;;;4.13;2.30;;;6.60;97.30;;;;;;4986191;28;20883;-60
2024/02/18 08:45:08;;;;;;;9.80;5.80;;;6.70;97.30;;;;;;4986473;28;20451;-60
2024/02/18 08:47:34;;;;;;;4.17;2.97;;;6.70;97.30;;;;;;4984873;28;20589;-60
2024/02/18 08:49:59;;;;;;;2.40;2.20;;;6.70;97.30;;;;;;4986360;28;20423;-60
2024/02/18 08:52:25;;;;;;;4.80;4.00;;;6.80;97.30;;;;;;4986309;28;20202;-60
2024/02/18 08:54:51;;;;;;;3.00;2.80;;;6.80;97.30;;;;;;4986257;28;20587;-60
2024/02/18 08:57:16;;;;;;;3.10;2.90;;;6.90;97.30;;;;;;4985144;28;20194;-60
2024/02/18 08:59:42;;;;;;;4.13;3.90;;;6.90;97.30;;;;;;5021137;28;20208;-60
2024/02/18 09:02:08;;;;;;;4.57;2.33;;;7.00;97.30;;;;;;4986406;28;20198;-60
2024/02/18 09:04:33;;;;;;;3.90;2.47;;;7.00;97.30;;;;;;4986566;28;20917;-60
2024/02/18 09:06:59;;;;;;;7.43;4.50;;;7.10;97.30;;;;;;4984705;28;20303;-60
2024/02/18 09:09:24;;;;;;;5.60;4.90;;;7.20;97.30;;;;;;4996499;28;20255;-60
2024/02/18 09:11:50;;;;;;;15.13;3.37;;;7.30;97.30;;;;;;4984758;28;20307;-60
2024/02/18 09:14:15;;;;;;;10.60;2.30;;;7.40;97.30;;;;;;4985610;28;20193;-60
2024/02/18 09:16:41;;;;;;;2.70;2.00;;;7.50;97.30;;;;;;4984929;28;20182;-60
2024/02/18 09:19:06;;;;;;;3.97;3.77;;;7.60;97.30;;;;;;4991617;28;20269;-60
2024/02/18 09:21:32;;;;;;;2.77;2.30;;;7.70;97.30;;;;;;4986065;28;20711;-60
2024/02/18 09:23:58;;;;;;;6.30;3.53;;;7.70;97.30;;;;;;5028416;28;20621;-60
2024/02/18 09:26:25;;;;;;;15.33;3.80;;;7.70;97.30;;;;;;4985099;28;20174;-60
2024/02/18 09:28:50;;;;;;;2.87;2.67;;;7.80;97.30;;;;;;5026140;28;20420;-60
2024/02/18 09:31:16;;;;;;;15.43;2.80;;;7.90;97.30;;;;;;4990455;28;20984;-60
2024/02/18 09:33:42;;;;;;;4.70;4.13;;;8.00;97.30;;;;;;4988214;28;20185;-60
2024/02/18 09:36:07;;;;;;;4.67;3.50;;;8.20;97.30;;;;;;4991124;28;20227;-60
2024/02/18 09:38:33;;;;;;;17.70;3.10;;;8.40;97.30;;;;;;4985881;28;20433;-60
2024/02/18 09:40:58;;;;;;;5.73;2.37;;;8.50;97.30;;;;;;4984746;28;20217;-60
2024/02/18 09:43:26;;;;;;;4.13;2.07;;;8.70;97.30;;;;;;4990090;28;20218;-60
2024/02/18 09:45:54;;;;;;;5.03;4.27;;;8.80;97.30;;;;;;4985940;28;20235;-60
2024/02/18 09:48:21;;;;;;;6.10;3.00;;;9.00;97.30;;;;;;4986075;28;20460;-60
2024/02/18 09:50:51;;;;;;;10.90;3.20;;;9.00;97.30;;;;;;4984186;28;20578;-60
2024/02/18 09:53:17;;;;;;;2.87;2.67;;;9.00;97.30;;;;;;4988087;28;20428;-60
2024/02/18 09:55:44;;;;;;;2.10;1.43;;;9.20;97.30;;;;;;4992428;28;20500;-60
2024/02/18 09:58:10;;;;;;;7.40;3.40;;;9.40;97.30;;;;;;5003763;28;20530;-57
2024/02/18 10:00:36;;;;;;;4.93;2.60;;;9.50;97.30;;;;;;5009028;28;20703;-57
2024/02/18 10:03:03;;;;;;;7.30;2.90;;;9.70;97.30;;;;;;4992361;28;20420;-60
2024/02/18 10:05:30;;;;;;;5.47;4.37;;;9.70;97.30;;;;;;4995660;28;20416;-60
2024/02/18 10:08:03;;;;;;;9.30;3.40;;;9.90;97.30;;;;;;4988107;28;20484;-60
2024/02/18 10:10:35;;;;;;;13.60;4.40;;;9.90;97.30;;;;;;4988658;28;20439;-58
2024/02/18 10:13:02;;;;;;;6.90;3.17;;;9.90;97.30;;;;;;4988473;28;20424;-58
2024/02/18 10:15:28;;;;;;;5.23;3.00;;;9.90;97.30;;;;;;4988997;28;20904;-60
2024/02/18 10:17:54;;;;;;;2.07;1.93;;;10.10;97.30;;;;;;5028313;28;20562;-61
2024/02/18 10:20:19;;;;;;;5.30;3.53;;;10.20;97.30;;;;;;4988590;28;20500;-60
2024/02/18 10:22:45;;;;;;;5.03;3.60;;;10.20;97.30;;;;;;4988324;28;20652;-60
2024/02/18 10:25:10;;;;;;;3.00;2.00;;;10.30;97.30;;;;;;4988638;28;20554;-60
2024/02/18 10:27:37;;;;;;;7.40;2.90;;;10.30;97.30;;;;;;4988123;28;20681;-60
2024/02/18 10:30:03;;;;;;;12.87;3.57;;;10.40;97.30;;;;;;4988655;28;20185;-60
2024/02/18 10:32:30;;;;;;;9.10;3.40;;;10.60;97.30;;;;;;4988846;28;20417;-58
2024/02/18 10:34:55;;;;;;;5.03;2.50;;;10.70;97.30;;;;;;5028853;28;20534;-60
2024/02/18 10:37:37;;;;;;;2.60;2.40;;;10.70;97.30;;;;;;4989299;28;20454;-60
2024/02/18 10:40:14;;;;;;;7.40;3.80;;;10.80;97.30;;;;;;5086384;28;20607;-58
2024/02/18 10:42:45;;;;;;;2.43;2.30;;;10.80;97.30;;;;;;5089068;28;20424;-58
2024/02/18 10:45:12;;;;;;;5.20;2.67;;;10.90;97.30;;;;;;5090237;28;20417;-60
2024/02/18 10:47:41;;;;;;;2.00;1.90;;;11.00;97.30;;;;;;5057959;28;20463;-58
2024/02/18 10:50:07;;;;;;;3.70;2.10;;;11.10;97.30;;;;;;5012021;28;20420;-58
2024/02/18 10:52:44;;;;;;;11.73;4.07;;;11.20;97.30;;;;;;5060974;28;20416;-58
2024/02/18 10:55:19;;;;;;;6.10;2.50;;;11.30;97.30;;;;;;5023142;28;20442;-58
2024/02/18 10:58:05;;;;;;;4.10;2.57;;;11.50;97.30;;;;;;5089104;28;20423;-58
2024/02/18 11:00:34;;;;;;;4.63;3.17;;;11.70;97.30;;;;;;5088511;28;20796;-60
2024/02/18 11:03:20;;;;;;;6.30;2.43;;;11.90;97.30;;;;;;5079482;28;20497;-60
2024/02/18 11:05:47;;;;;;;3.23;2.80;;;12.00;97.30;;;;;;5039858;28;20428;-61
2024/02/18 11:08:13;;;;;;;5.00;4.10;;;12.00;97.30;;;;;;5021867;28;20468;-58
2024/02/18 11:10:40;;;;;;;8.23;3.50;;;12.00;97.30;;;;;;5055225;28;20436;-60
2024/02/18 11:13:07;;;;;;;4.57;3.17;;;12.10;97.30;;;;;;5055207;28;20451;-58
2024/02/18 11:15:35;;;;;;;11.20;3.73;;;12.20;97.30;;;;;;5028163;28;20420;-61
2024/02/18 11:18:01;;;;;;;2.93;2.40;;;12.30;97.30;;;;;;5041705;28;20625;-60
2024/02/18 11:20:27;;;;;;;3.27;2.13;;;12.30;97.30;;;;;;5066384;28;20761;-58
2024/02/18 11:22:53;;;;;;;4.43;2.97;;;12.40;97.30;;;;;;5084811;28;20500;-60
2024/02/18 11:25:19;;;;;;;1.67;1.57;;;12.40;97.30;;;;;;5025859;28;20511;-60
2024/02/18 11:27:45;;;;;;;2.73;2.13;;;12.40;97.30;;;;;;5089696;28;20551;-58
2024/02/18 11:30:11;;;;;;;3.57;3.40;;;12.40;97.30;;;;;;5075380;28;20177;-62
2024/02/18 11:32:36;;;;;;;3.87;2.10;;;12.40;97.30;;;;;;5036650;28;20405;-60
2024/02/18 11:35:10;;;;;;;1.53;1.40;;;12.40;97.30;;;;;;5078631;28;20415;-60
2024/02/18 11:37:37;;;;;;;3.10;2.23;;;12.50;97.30;;;;;;5025590;28;20184;-60
2024/02/18 11:40:18;;;;;;;4.30;1.80;;;12.60;97.30;;;;;;5049022;28;20539;-60
2024/02/18 11:42:45;;;;;;;2.17;2.00;;;12.70;97.30;;;;;;5022754;28;20473;-60
2024/02/18 11:45:13;;;;;;;6.03;2.20;;;12.70;97.30;;;;;;5039748;28;20460;-60
2024/02/18 11:47:48;;;;;;;1.60;1.50;;;12.80;97.30;;;;;;5069432;28;20554;-60
2024/02/18 11:50:16;;;;;;;2.20;1.63;;;12.80;97.30;;;;;;5025823;28;20430;-61
2024/02/18 11:52:42;;;;;;;5.57;2.77;;;12.80;97.30;;;;;;5039730;28;20507;-60
2024/02/18 11:55:26;;;;;;;3.93;1.70;;;13.00;97.30;;;;;;5041047;28;20408;-60
2024/02/18 11:57:52;;;;;;;4.27;2.20;;;13.00;97.30;;;;;;5075222;28;20408;-60
2024/02/18 12:00:19;;;;;;;11.40;1.43;;;13.00;97.30;;;;;;5057189;28;20430;-60
2024/02/18 12:02:53;;;;;;;3.07;1.83;;;13.10;97.30;;;;;;5089569;28;20208;-60
2024/02/18 12:05:23;;;;;;;1.77;1.67;;;13.10;97.30;;;;;;5036283;28;20428;-60
2024/02/18 12:07:56;;;;;;;2.70;2.50;;;13.10;97.30;;;;;;5063966;28;20488;-60
2024/02/18 12:10:22;;;;;;;2.30;2.10;;;13.20;97.30;;;;;;5059184;28;20507;-61
2024/02/18 12:12:48;;;;;;;2.80;2.00;;;13.30;97.30;;;;;;5089098;28;20820;-60
2024/02/18 12:15:25;;;;;;;5.73;1.83;;;13.40;97.30;;;;;;5011496;28;20474;-61
2024/02/18 12:17:52;;;;;;;2.50;1.60;;;13.50;96.90;;;;;;5054267;28;20607;-60
2024/02/18 12:20:30;;;;;;;15.73;3.60;;;13.40;97.00;;;;;;5072229;28;20936;-61
2024/02/18 12:22:56;;;;;;;5.10;2.30;;;13.30;96.40;;;;;;5010318;28;20447;-61
2024/02/18 12:25:22;;;;;;;5.13;2.87;;;13.20;96.80;;;;;;5054312;28;20447;-60
2024/02/18 12:27:48;;;;;;;2.50;2.13;;;13.30;97.30;;;;;;5025431;28;20464;-61
2024/02/18 12:30:14;;;;;;;1.80;1.67;;;13.30;97.30;;;;;;5056851;28;20409;-61
2024/02/18 12:32:40;;;;;;;2.40;1.57;;;13.30;97.30;;;;;;5057510;28;20364;-61
2024/02/18 12:35:06;;;;;;;2.43;2.23;;;13.20;96.90;;;;;;5056883;28;20257;-61
2024/02/18 12:37:32;;;;;;;1.87;1.77;;;13.20;97.30;;;;;;5085197;28;20711;-60
2024/02/18 12:39:57;;;;;;;4.40;1.90;;;13.20;97.30;;;;;;5026182;28;20193;-61
2024/02/18 12:42:24;;;;;;;5.60;1.97;;;13.20;97.30;;;;;;5088290;28;20510;-61
2024/02/18 12:44:50;;;;;;;2.00;1.90;;;13.10;96.90;;;;;;5048745;28;20178;-60
2024/02/18 12:47:16;;;;;;;7.73;3.00;;;13.10;97.30;;;;;;5056718;28;20459;-61
2024/02/18 12:49:42;;;;;;;2.37;2.17;;;13.10;97.30;;;;;;5052654;28;20235;-61
2024/02/18 12:52:12;;;;;;;1.73;1.30;;;13.00;97.30;;;;;;5077805;28;20437;-60
2024/02/18 12:54:38;;;;;;;5.43;2.37;;;13.00;97.30;;;;;;5009501;28;20439;-60
2024/02/18 12:57:05;;;;;;;6.80;2.20;;;12.90;97.30;;;;;;5053484;28;20428;-61
2024/02/18 12:59:31;;;;;;;1.73;1.63;;;13.00;97.30;;;;;;5058472;28;20424;-61
2024/02/18 13:01:57;;;;;;;3.83;2.70;;;13.00;97.30;;;;;;5024739;28;20450;-61
2024/02/18 13:04:23;;;;;;;2.33;1.87;;;13.00;97.30;;;;;;5043962;28;20421;-60
2024/02/18 13:07:04;;;;;;;7.43;3.47;;;13.00;97.30;;;;;;5071239;28;20275;-60
2024/02/18 13:09:30;;;;;;;2.60;1.87;;;13.00;97.30;;;;;;5029269;28;20786;-61
2024/02/18 13:11:56;;;;;;;14.47;3.30;;;12.90;97.30;;;;;;5039257;28;20961;-60
2024/02/18 13:14:22;;;;;;;1.80;1.73;;;12.90;97.30;;;;;;5019788;28;20420;-60
2024/02/18 13:16:47;;;;;;;2.57;2.40;;;12.90;97.30;;;;;;5045040;28;20412;-61
2024/02/18 13:19:13;;;;;;;2.03;1.90;;;12.80;97.30;;;;;;5069536;28;20603;-61
2024/02/18 13:21:39;;;;;;;5.70;4.27;;;12.90;97.30;;;;;;5044473;28;20226;-60
2024/02/18 13:24:05;;;;;;;1.97;1.87;;;12.90;97.30;;;;;;5049078;28;20228;-61
2024/02/18 13:26:30;;;;;;;1.83;1.73;;;12.90;97.30;;;;;;5024121;28;20171;-61
2024/02/18 13:28:56;;;;;;;1.30;1.30;;;12.90;97.30;;;;;;5059682;28;20800;-61
2024/02/18 13:31:22;;;;;;;1.97;1.43;;;13.00;97.30;;;;;;5046956;28;20761;-60
2024/02/18 13:33:47;;;;;;;3.60;2.60;;;13.00;97.30;;;;;;5079453;28;20189;-60
2024/02/18 13:36:13;;;;;;;1.97;1.20;;;12.90;97.30;;;;;;5051814;28;20522;-60
2024/02/18 13:38:39;;;;;;;1.30;1.20;;;12.90;97.30;;;;;;5041837;28;20189;-60
2024/02/18 13:41:05;;;;;;;1.33;1.23;;;12.90;94.50;;;;;;5031333;28;20198;-63
2024/02/18 13:43:31;;;;;;;1.37;1.27;;;13.00;93.40;;;;;;5059565;28;20201;-60
2024/02/18 13:45:56;;;;;;;1.03;0.93;;;13.00;93.40;;;;;;5051944;28;20424;-61
2024/02/18 13:48:22;;;;;;;2.03;1.77;;;13.10;92.30;;;;;;5057127;28;20216;-61
2024/02/18 13:50:48;;;;;;;0.90;0.80;;;13.10;91.80;;;;;;5034193;28;20234;-61
2024/02/18 13:53:14;;;;;;;0.80;0.70;;;13.10;91.70;;;;;;5081057;28;20247;-59
2024/02/18 13:55:39;;;;;;;1.57;1.50;;;13.10;90.80;;;;;;5018044;28;20256;-59
2024/02/18 13:58:05;;;;;;;1.73;1.47;;;13.10;91.20;;;;;;5081499;28;20570;-58
2024/02/18 14:00:30;;;;;;;1.47;1.17;;;13.10;90.90;;;;;;5013007;28;20696;-58
2024/02/18 14:02:56;;;;;;;1.30;1.20;;;13.10;90.80;;;;;;5055277;28;20185;-59
2024/02/18 14:05:21;;;;;;;1.20;1.10;;;13.10;90.50;;;;;;5063423;28;20193;-59
2024/02/18 14:07:47;;;;;;;0.90;0.80;;;13.10;90.20;;;;;;5087726;28;20230;-59
2024/02/18 14:10:16;;;;;;;1.07;0.97;;;13.10;90.10;;;;;;5023763;28;20249;-59
2024/02/18 14:12:46;;;;;;;1.63;1.53;;;13.10;90.10;;;;;;5037719;28;20183;-60
2024/02/18 14:15:12;;;;;;;2.40;1.20;;;13.10;89.50;;;;;;5029018;28;20428;-59
2024/02/18 14:17:40;;;;;;;1.10;1.00;;;13.10;89.70;;;;;;5040425;28;20431;-59
2024/02/18 14:20:07;;;;;;;1.20;1.13;;;13.10;89.80;;;;;;5083193;28;20556;-59
2024/02/18 14:22:32;;;;;;;1.10;1.00;;;13.10;90.30;;;;;;5041482;28;20460;-59
2024/02/18 14:24:58;;;;;;;1.23;1.00;;;13.10;90.30;;;;;;5063447;28;20585;-60
2024/02/18 14:27:24;;;;;;;1.90;1.07;;;13.10;90.00;;;;;;5076053;28;20390;-60
2024/02/18 14:29:50;;;;;;;2.17;2.00;;;13.00;90.00;;;;;;5050839;28;20273;-59
2024/02/18 14:32:16;;;;;;;1.00;0.90;;;13.00;90.50;;;;;;5053364;28;20198;-59
2024/02/18 14:34:42;;;;;;;1.03;1.03;;;13.00;90.70;;;;;;5049629;28;20474;-59
2024/02/18 14:37:08;;;;;;;1.97;1.10;;;13.00;90.90;;;;;;5046086;28;20433;-59
2024/02/18 14:39:33;;;;;;;1.93;1.80;;;12.90;90.60;;;;;;5069061;28;20523;-60
2024/02/18 14:41:59;;;;;;;4.10;1.73;;;12.90;91.30;;;;;;5090237;28;20210;-60
2024/02/18 14:44:26;;;;;;;1.50;1.40;;;12.90;90.90;;;;;;5043454;28;20250;-60
2024/02/18 14:46:52;;;;;;;1.17;1.10;;;12.90;91.40;;;;;;5079626;28;20186;-59
2024/02/18 14:49:17;;;;;;;1.63;1.33;;;12.80;91.50;;;;;;5062337;28;20417;-60
2024/02/18 14:51:43;;;;;;;1.63;1.43;;;12.80;91.60;;;;;;5088798;28;20217;-60
2024/02/18 14:54:09;;;;;;;4.20;2.30;;;12.80;92.10;;;;;;5063648;28;20651;-59
2024/02/18 14:56:35;;;;;;;1.50;1.40;;;12.70;91.90;;;;;;5089985;28;20190;-59
2024/02/18 14:59:00;;;;;;;12.83;3.37;;;12.70;92.30;;;;;;5089355;28;20412;-60
2024/02/18 15:01:26;;;;;;;1.83;1.73;;;12.70;92.20;;;;;;5041009;28;20664;-59
2024/02/18 15:03:51;;;;;;;1.10;1.00;;;12.70;92.30;;;;;;5049159;28;20186;-59
2024/02/18 15:06:17;;;;;;;1.53;1.43;;;12.70;92.40;;;;;;5018952;28;20190;-60
2024/02/18 15:08:42;;;;;;;3.10;1.83;;;12.70;92.70;;;;;;4999541;28;20618;-60
2024/02/18 15:11:08;;;;;;;2.13;1.57;;;12.70;92.50;;;;;;4996972;28;20201;-60
2024/02/18 15:13:33;;;;;;;2.27;1.47;;;12.70;92.50;;;;;;5018124;28;20181;-60
2024/02/18 15:15:59;;;;;;;1.60;1.50;;;12.60;92.50;;;;;;5000848;28;20185;-60
2024/02/18 15:18:24;;;;;;;0.90;0.80;;;12.70;92.70;;;;;;4996781;28;20228;-60
2024/02/18 15:20:51;;;;;;;1.93;1.83;;;12.60;92.90;;;;;;5001975;28;20295;-59
2024/02/18 15:23:18;;;;;;;2.97;2.10;;;12.60;93.00;;;;;;4992197;28;20264;-59
2024/02/18 15:25:43;;;;;;;1.47;1.37;;;12.60;93.30;;;;;;4992413;28;20425;-59
2024/02/18 15:28:09;;;;;;;0.90;0.80;;;12.60;93.30;;;;;;5022436;28;20518;-60
2024/02/18 15:30:34;;;;;;;14.57;2.60;;;12.50;93.30;;;;;;4993483;28;20266;-59
2024/02/18 15:33:00;;;;;;;3.40;1.57;;;12.50;93.50;;;;;;4988906;28;20231;-59
2024/02/18 15:35:27;;;;;;;1.60;1.50;;;12.50;93.30;;;;;;4988975;28;20178;-59
2024/02/18 15:37:53;;;;;;;1.77;1.67;;;12.50;93.70;;;;;;4999478;28;20550;-60
2024/02/18 15:40:20;;;;;;;1.40;1.30;;;12.40;94.50;;;;;;5022358;28;20762;-59
2024/02/18 15:42:45;;;;;;;1.23;1.13;;;12.30;94.50;;;;;;5004780;28;20417;-59
2024/02/18 15:45:12;;;;;;;1.07;0.97;;;12.30;95.00;;;;;;4998993;28;20497;-59
2024/02/18 15:47:38;;;;;;;2.53;2.33;;;12.20;95.00;;;;;;4989112;28;20612;-60
2024/02/18 15:50:04;;;;;;;4.03;1.50;;;12.10;95.40;;;;;;4989006;28;20979;-60
2024/02/18 15:52:29;;;;;;;1.50;1.40;;;12.00;95.70;;;;;;4993761;28;20173;-60
2024/02/18 15:54:55;;;;;;;15.87;1.27;;;11.90;96.00;;;;;;4993267;28;20508;-59
2024/02/18 15:57:20;;;;;;;1.17;1.00;;;11.90;96.50;;;;;;4987203;28;20594;-59
2024/02/18 15:59:46;;;;;;;1.30;1.20;;;11.80;96.30;;;;;;4999364;28;20192;-60
2024/02/18 16:02:11;;;;;;;1.30;1.17;;;11.80;96.70;;;;;;4992451;28;20298;-60
2024/02/18 16:04:41;;;;;;;1.77;1.67;;;11.70;96.90;;;;;;5020288;28;20188;-59
2024/02/18 16:07:06;;;;;;;1.27;1.17;;;11.70;97.30;;;;;;5019730;28;20675;-60
2024/02/18 16:09:32;;;;;;;1.30;1.00;;;11.60;97.30;;;;;;4991346;28;20507;-60
2024/02/18 16:11:58;;;;;;;1.23;1.10;;;11.50;97.30;;;;;;5020898;28;20235;-60
2024/02/18 16:14:23;;;;;;;2.40;2.20;;;11.50;97.30;;;;;;4992232;28;20508;-60
2024/02/18 16:16:49;;;;;;;1.53;1.47;;;11.40;97.30;;;;;;4990921;28;20182;-60
2024/02/18 16:19:14;;;;;;;1.33;1.23;;;11.40;97.30;;;;;;4997655;28;20182;-59
2024/02/18 16:21:40;;;;;;;5.33;1.70;;;11.30;97.30;;;;;;5018867;28;20198;-60
2024/02/18 16:24:06;;;;;;;1.20;1.10;;;11.30;97.30;;;;;;4986968;28;20192;-59
2024/02/18 16:26:31;;;;;;;1.13;1.07;;;11.20;97.30;;;;;;4981546;28;20413;-60
2024/02/18 16:28:57;;;;;;;12.50;2.10;;;11.20;97.30;;;;;;5032862;28;20306;-59
2024/02/18 16:31:23;;;;;;;1.13;1.03;;;11.10;97.30;;;;;;4985140;28;20206;-60
2024/02/18 16:33:48;;;;;;;4.67;2.03;;;11.00;97.30;;;;;;4990222;28;20642;-60
2024/02/18 16:36:14;;;;;;;2.50;1.27;;;11.00;97.30;;;;;;5012842;28;20776;-60
2024/02/18 16:38:41;;;;;;;1.43;1.20;;;10.90;97.30;;;;;;4988267;28;20197;-60
2024/02/18 16:41:07;;;;;;;1.57;1.47;;;10.90;97.30;;;;;;4969438;28;20207;-60
2024/02/18 16:43:34;;;;;;;1.03;0.90;;;10.80;97.30;;;;;;4989957;28;20435;-60
2024/02/18 16:46:03;;;;;;;2.33;2.13;;;10.80;97.30;;;;;;4986779;28;20545;-60
2024/02/18 16:48:32;;;;;;;1.93;1.83;;;10.70;97.30;;;;;;4984941;28;20516;-59
2024/02/18 16:50:57;;;;;;;1.83;1.40;;;10.70;97.30;;;;;;4983451;28;21074;-60
2024/02/18 16:53:23;;;;;;;1.57;1.37;;;10.70;97.30;;;;;;4984562;28;20492;-59
2024/02/18 16:55:49;;;;;;;2.70;1.27;;;10.60;97.30;;;;;;4984489;28;20201;-59
2024/02/18 16:58:15;;;;;;;2.67;0.93;;;10.60;97.30;;;;;;4992387;28;20688;-61
2024/02/18 17:00:41;;;;;;;7.83;3.23;;;10.60;97.30;;;;;;4985387;28;20228;-59
2024/02/18 17:03:06;;;;;;;1.63;1.53;;;10.60;97.30;;;;;;4981861;28;20457;-59
2024/02/18 17:05:33;;;;;;;0.90;0.90;;;10.60;97.30;;;;;;4984801;28;20188;-59
2024/02/18 17:07:59;;;;;;;3.37;3.07;;;10.60;97.30;;;;;;4979080;28;20271;-60
2024/02/18 17:10:24;;;;;;;1.90;1.80;;;10.50;97.30;;;;;;4992856;28;20440;-59
2024/02/18 17:12:50;;;;;;;4.73;4.27;;;10.50;97.30;;;;;;4982673;28;20592;-60
2024/02/18 17:15:15;;;;;;;1.83;1.73;;;10.50;97.30;;;;;;4977056;28;20591;-60
2024/02/18 17:17:41;;;;;;;1.23;1.13;;;10.50;97.30;;;;;;4981613;28;20197;-60
2024/02/18 17:20:07;;;;;;;3.23;2.40;;;10.50;97.30;;;;;;4980619;28;20653;-59
2024/02/18 17:22:33;;;;;;;3.13;2.93;;;10.50;97.30;;;;;;4982068;28;20543;-59
2024/02/18 17:24:58;;;;;;;1.87;1.77;;;10.50;97.30;;;;;;4981878;28;20433;-60
2024/02/18 17:27:24;;;;;;;2.30;1.90;;;10.50;97.30;;;;;;5013238;28;20284;-60
2024/02/18 17:29:50;;;;;;;2.17;1.63;;;10.50;97.30;;;;;;4975224;28;20181;-59
2024/02/18 17:32:15;;;;;;;3.37;2.70;;;10.60;97.30;;;;;;4981521;28;20201;-60
2024/02/18 17:34:41;;;;;;;1.93;1.83;;;10.60;97.30;;;;;;4994907;28;20180;-60
2024/02/18 17:37:08;;;;;;;3.90;2.10;;;10.60;97.30;;;;;;4989499;28;20215;-60
2024/02/18 17:39:33;;;;;;;1.17;1.07;;;10.50;97.30;;;;;;5038655;28;20181;-60
2024/02/18 17:41:59;;;;;;;2.83;2.17;;;10.50;97.30;;;;;;5030130;28;20444;-60
2024/02/18 17:44:24;;;;;;;1.87;1.77;;;10.50;97.30;;;;;;5051483;28;20205;-60
2024/02/18 17:46:50;;;;;;;4.60;2.03;;;10.50;97.30;;;;;;5053545;28;20582;-60